Time;durP1;ratioP1;P1;durP2;ratioP2;P2;SDS_P1;SDS_P2;PMS_P1;PMS_P2;Temp;Humidity;BMP_temperature;BMP_pressure;BME280_temperature;BME280_humidity;BME280_pressure;Samples;Min_cycle;Max_cycle;Signal;HPM_P1;HPM_P2
2022/09/09 00:02:02;;;;;;;1.40;1.10;;;17.70;83.60;;;;;;4983740;28;20865;-49
2022/09/09 00:04:30;;;;;;;4.60;1.50;;;17.60;83.70;;;;;;4991182;28;20501;-49
2022/09/09 00:07:33;;;;;;;3.30;1.60;;;17.50;83.70;;;;;;4993544;28;20515;-48
2022/09/09 00:10:19;;;;;;;1.53;1.30;;;17.40;84.00;;;;;;4982919;28;20511;-48
2022/09/09 00:12:49;;;;;;;2.00;1.10;;;17.40;84.40;;;;;;4996795;28;20491;-48
2022/09/09 00:15:23;;;;;;;2.47;1.30;;;17.30;84.50;;;;;;4986996;28;20494;-48
2022/09/09 00:17:50;;;;;;;1.40;1.30;;;17.50;84.60;;;;;;4977614;28;20465;-48
2022/09/09 00:20:34;;;;;;;2.23;1.17;;;17.60;84.10;;;;;;4989209;28;20551;-48
2022/09/09 00:23:06;;;;;;;1.37;1.10;;;17.70;83.80;;;;;;4992887;28;20578;-48
2022/09/09 00:25:42;;;;;;;3.50;1.00;;;17.60;83.80;;;;;;4985649;28;20464;-49
2022/09/09 00:28:17;;;;;;;3.53;1.60;;;17.70;83.60;;;;;;5000044;28;20460;-48
2022/09/09 00:30:47;;;;;;;4.40;1.80;;;17.70;83.10;;;;;;4995010;28;20471;-49
2022/09/09 00:33:18;;;;;;;2.10;1.47;;;17.70;83.00;;;;;;4978385;28;20467;-48
2022/09/09 00:35:49;;;;;;;3.73;1.73;;;17.80;82.80;;;;;;4977198;28;20452;-48
2022/09/09 00:38:23;;;;;;;2.27;1.50;;;17.80;82.70;;;;;;4980548;28;21027;-48
2022/09/09 00:41:03;;;;;;;2.30;1.10;;;17.80;82.80;;;;;;4996610;28;20457;-48
2022/09/09 00:43:32;;;;;;;1.33;1.20;;;17.80;82.90;;;;;;4996504;28;20495;-49
2022/09/09 00:46:34;;;;;;;2.17;1.23;;;17.80;82.80;;;;;;4996251;28;20464;-48
2022/09/09 00:49:13;;;;;;;2.43;1.47;;;17.80;82.90;;;;;;4980151;28;20471;-48
2022/09/09 00:52:01;;;;;;;2.80;1.53;;;17.70;83.10;;;;;;4997239;28;20545;-49
2022/09/09 00:54:44;;;;;;;1.53;1.43;;;17.70;83.10;;;;;;4976361;28;20496;-49
2022/09/09 00:57:28;;;;;;;3.00;1.60;;;17.50;83.70;;;;;;4993979;28;20923;-49
2022/09/09 01:00:19;;;;;;;2.83;2.20;;;17.40;84.20;;;;;;4985656;28;20543;-48
2022/09/09 01:03:19;;;;;;;2.10;1.57;;;17.20;85.40;;;;;;4992758;28;20520;-49
2022/09/09 01:06:09;;;;;;;3.03;2.17;;;17.30;84.90;;;;;;4994980;28;20515;-48
2022/09/09 01:09:00;;;;;;;4.30;1.17;;;17.30;85.30;;;;;;4980556;28;20527;-48
2022/09/09 01:11:37;;;;;;;1.77;1.67;;;17.20;85.40;;;;;;4980091;28;20454;-48
2022/09/09 01:14:19;;;;;;;2.53;1.50;;;17.20;85.30;;;;;;4993781;28;20456;-49
2022/09/09 01:16:47;;;;;;;5.50;1.50;;;17.20;85.40;;;;;;4995925;28;20495;-49
2022/09/09 01:19:24;;;;;;;2.20;1.40;;;17.20;85.20;;;;;;4991931;28;20464;-49
2022/09/09 01:22:01;;;;;;;3.20;1.67;;;17.30;84.70;;;;;;4992083;28;20465;-48
2022/09/09 01:24:42;;;;;;;5.73;2.60;;;17.30;84.40;;;;;;5006247;28;20889;-49
2022/09/09 01:27:10;;;;;;;4.73;2.40;;;17.30;84.40;;;;;;5000187;28;20485;-48
2022/09/09 01:29:37;;;;;;;2.17;1.00;;;17.30;84.60;;;;;;4996341;28;21028;-49
2022/09/09 01:32:42;;;;;;;1.47;1.30;;;17.30;84.60;;;;;;4978718;28;20500;-48
2022/09/09 01:35:21;;;;;;;3.20;1.73;;;17.30;84.20;;;;;;4984395;28;20468;-48
2022/09/09 01:37:48;;;;;;;1.63;1.40;;;17.30;84.00;;;;;;4998014;28;20507;-48
2022/09/09 01:40:15;;;;;;;1.40;1.10;;;17.30;83.90;;;;;;5010150;28;20496;-48
2022/09/09 01:42:41;;;;;;;2.93;1.40;;;17.30;83.80;;;;;;4999302;28;20488;-48
2022/09/09 01:45:09;;;;;;;2.30;1.20;;;17.20;84.20;;;;;;4995492;28;20515;-48
2022/09/09 01:47:36;;;;;;;2.90;1.70;;;17.10;84.20;;;;;;4988183;28;20457;-48
2022/09/09 01:50:03;;;;;;;2.00;1.37;;;17.00;84.60;;;;;;4996372;28;20871;-48
2022/09/09 01:52:33;;;;;;;1.40;1.20;;;16.90;84.30;;;;;;4993889;28;21061;-49
2022/09/09 01:55:00;;;;;;;1.60;1.50;;;16.90;84.40;;;;;;4985306;28;20511;-48
2022/09/09 01:57:47;;;;;;;5.60;1.47;;;17.00;84.40;;;;;;4995033;28;20543;-48
2022/09/09 02:00:15;;;;;;;2.60;1.30;;;17.10;83.80;;;;;;4980628;28;20539;-48
2022/09/09 02:03:00;;;;;;;3.13;1.43;;;17.10;83.60;;;;;;4996010;28;20523;-48
2022/09/09 02:06:04;;;;;;;5.83;2.07;;;17.00;83.50;;;;;;4975797;28;20874;-49
2022/09/09 02:08:50;;;;;;;2.40;1.10;;;17.00;83.60;;;;;;4995834;28;20492;-49
2022/09/09 02:11:23;;;;;;;3.00;1.60;;;17.00;83.60;;;;;;4978924;28;20457;-48
2022/09/09 02:13:56;;;;;;;1.40;1.20;;;17.00;83.20;;;;;;4998584;28;20490;-49
2022/09/09 02:16:30;;;;;;;2.37;1.40;;;16.90;83.50;;;;;;4977595;28;20939;-49
2022/09/09 02:19:01;;;;;;;4.00;1.40;;;16.90;83.90;;;;;;5012881;28;20506;-48
2022/09/09 02:21:30;;;;;;;1.67;1.27;;;17.00;83.70;;;;;;5007697;28;20469;-48
2022/09/09 02:23:59;;;;;;;1.47;1.27;;;17.10;83.50;;;;;;5012755;28;20515;-48
2022/09/09 02:26:26;;;;;;;2.73;1.30;;;17.10;83.50;;;;;;5010665;28;22568;-48
2022/09/09 02:28:57;;;;;;;2.73;1.10;;;17.10;83.40;;;;;;4996297;28;20484;-49
2022/09/09 02:31:25;;;;;;;5.30;1.33;;;17.20;83.30;;;;;;5013084;28;20456;-49
2022/09/09 02:33:57;;;;;;;1.37;1.20;;;17.10;83.20;;;;;;5008530;28;20489;-49
2022/09/09 02:36:26;;;;;;;4.33;1.37;;;17.00;83.70;;;;;;5011603;28;20472;-49
2022/09/09 02:38:54;;;;;;;1.37;1.13;;;16.90;84.30;;;;;;5011356;28;20544;-49
2022/09/09 02:41:25;;;;;;;1.53;1.30;;;16.90;84.10;;;;;;5011928;28;20452;-48
2022/09/09 02:43:52;;;;;;;5.47;1.67;;;16.70;84.90;;;;;;5008410;28;20487;-49
2022/09/09 02:46:38;;;;;;;8.20;2.27;;;16.70;84.80;;;;;;4995893;28;20461;-48
2022/09/09 02:49:51;;;;;;;1.50;1.30;;;16.50;85.40;;;;;;5010381;28;20461;-48
2022/09/09 02:52:29;;;;;;;2.40;1.20;;;16.60;85.00;;;;;;5012793;28;20856;-48
2022/09/09 02:55:03;;;;;;;1.30;1.10;;;16.70;84.40;;;;;;5009777;28;20469;-49
2022/09/09 02:57:31;;;;;;;2.93;1.23;;;16.70;84.10;;;;;;4996072;28;20485;-48
2022/09/09 02:59:58;;;;;;;3.30;1.40;;;16.80;83.90;;;;;;5010880;28;20453;-48
2022/09/09 03:02:25;;;;;;;3.20;1.27;;;16.60;84.80;;;;;;5009664;28;21704;-49
2022/09/09 03:04:52;;;;;;;2.67;1.50;;;16.50;84.90;;;;;;5012562;28;20460;-48
2022/09/09 03:07:19;;;;;;;2.60;1.70;;;16.50;85.60;;;;;;5016049;28;20539;-48
2022/09/09 03:09:46;;;;;;;2.17;1.70;;;16.60;84.90;;;;;;4999899;28;20947;-49
2022/09/09 03:12:12;;;;;;;1.50;1.40;;;16.60;84.60;;;;;;5013792;28;20484;-48
2022/09/09 03:14:39;;;;;;;2.50;1.57;;;16.70;84.20;;;;;;5012112;28;20493;-49
2022/09/09 03:17:06;;;;;;;1.30;1.20;;;16.60;84.10;;;;;;4991600;28;20461;-48
2022/09/09 03:19:35;;;;;;;1.50;1.20;;;16.50;84.90;;;;;;5007289;28;20515;-49
2022/09/09 03:22:01;;;;;;;5.90;2.00;;;16.60;84.70;;;;;;5016587;28;20456;-49
2022/09/09 03:24:28;;;;;;;2.83;1.60;;;16.60;84.70;;;;;;5012538;28;20485;-49
2022/09/09 03:26:55;;;;;;;1.40;1.20;;;16.60;84.70;;;;;;5007394;28;20488;-49
2022/09/09 03:29:22;;;;;;;2.20;1.70;;;16.60;84.50;;;;;;5008175;28;20492;-49
2022/09/09 03:31:50;;;;;;;4.87;1.50;;;16.60;84.70;;;;;;4996706;28;20499;-49
2022/09/09 03:34:17;;;;;;;3.70;2.20;;;16.60;84.60;;;;;;4991529;28;20450;-48
2022/09/09 03:36:43;;;;;;;6.67;1.70;;;16.60;84.50;;;;;;5009184;28;20472;-48
2022/09/09 03:39:10;;;;;;;5.60;1.77;;;16.60;84.60;;;;;;5014884;28;20491;-48
2022/09/09 03:41:37;;;;;;;2.30;1.70;;;16.60;84.50;;;;;;4993833;28;20710;-48
2022/09/09 03:44:03;;;;;;;2.87;1.40;;;16.60;84.20;;;;;;5007577;28;21002;-48
2022/09/09 03:46:31;;;;;;;1.80;1.13;;;16.60;84.50;;;;;;4997593;28;20461;-48
2022/09/09 03:48:58;;;;;;;2.33;1.40;;;16.60;84.40;;;;;;4998975;28;20500;-49
2022/09/09 03:51:24;;;;;;;2.50;1.50;;;16.60;84.30;;;;;;5009653;28;20460;-48
2022/09/09 03:53:51;;;;;;;2.20;1.80;;;16.60;84.20;;;;;;4999388;28;20515;-48
2022/09/09 03:56:17;;;;;;;3.10;1.60;;;16.60;84.40;;;;;;5022774;28;20861;-49
2022/09/09 03:58:44;;;;;;;3.73;1.57;;;16.60;84.00;;;;;;4997367;28;20492;-48
2022/09/09 04:01:13;;;;;;;8.60;1.77;;;16.50;84.20;;;;;;5006041;28;20505;-48
2022/09/09 04:03:40;;;;;;;2.87;1.60;;;16.40;84.80;;;;;;4994243;28;20557;-48
2022/09/09 04:06:09;;;;;;;2.10;1.73;;;16.40;84.70;;;;;;5007686;28;20453;-48
2022/09/09 04:08:37;;;;;;;3.70;1.67;;;16.30;85.50;;;;;;5011009;28;20495;-48
2022/09/09 04:11:06;;;;;;;5.97;2.70;;;16.30;85.80;;;;;;5011386;28;20453;-49
2022/09/09 04:13:34;;;;;;;3.87;2.40;;;16.40;85.00;;;;;;5010161;28;20461;-49
2022/09/09 04:16:03;;;;;;;2.93;2.60;;;16.40;84.90;;;;;;5009844;28;20472;-49
2022/09/09 04:18:30;;;;;;;6.03;3.27;;;16.30;85.60;;;;;;5010591;28;21036;-49
2022/09/09 04:20:57;;;;;;;6.03;2.27;;;16.30;85.90;;;;;;5007934;28;20473;-48
2022/09/09 04:23:29;;;;;;;2.00;1.80;;;16.40;85.20;;;;;;5026731;28;20521;-48
2022/09/09 04:25:57;;;;;;;1.67;1.57;;;16.50;84.90;;;;;;5009653;28;20495;-48
2022/09/09 04:28:25;;;;;;;2.33;2.13;;;16.40;84.80;;;;;;5006721;28;20514;-49
2022/09/09 04:30:52;;;;;;;2.40;2.00;;;16.40;85.10;;;;;;5006087;28;20491;-48
2022/09/09 04:33:19;;;;;;;3.63;1.70;;;16.30;85.40;;;;;;5003972;28;20465;-48
2022/09/09 04:35:48;;;;;;;1.50;1.30;;;16.40;85.40;;;;;;5008795;28;20491;-48
2022/09/09 04:38:16;;;;;;;1.63;1.40;;;16.40;85.00;;;;;;5020511;28;20515;-48
2022/09/09 04:40:47;;;;;;;1.83;1.70;;;16.40;84.90;;;;;;5011150;28;20468;-48
2022/09/09 04:43:22;;;;;;;5.80;1.90;;;16.50;84.80;;;;;;5001109;28;20758;-48
2022/09/09 04:45:51;;;;;;;4.10;2.00;;;16.50;84.70;;;;;;5010151;28;20872;-49
2022/09/09 04:48:19;;;;;;;1.50;1.40;;;16.50;84.70;;;;;;5028980;28;20492;-49
2022/09/09 04:51:04;;;;;;;1.93;1.30;;;16.50;84.60;;;;;;5011873;28;20488;-49
2022/09/09 04:53:33;;;;;;;2.43;1.73;;;16.50;84.70;;;;;;5013376;28;20835;-49
2022/09/09 04:56:07;;;;;;;3.10;1.63;;;16.40;84.80;;;;;;5010671;28;20495;-49
2022/09/09 04:58:34;;;;;;;2.73;1.50;;;16.40;85.10;;;;;;4991860;28;20590;-48
2022/09/09 05:01:06;;;;;;;2.60;1.50;;;16.50;84.60;;;;;;5004291;28;20459;-49
2022/09/09 05:03:32;;;;;;;2.60;1.63;;;16.40;84.90;;;;;;5011639;28;20489;-49
2022/09/09 05:06:06;;;;;;;3.10;1.40;;;16.50;84.90;;;;;;5014012;28;20813;-48
2022/09/09 05:08:34;;;;;;;3.20;1.77;;;16.50;84.90;;;;;;5010608;28;20955;-49
2022/09/09 05:11:00;;;;;;;2.10;1.67;;;16.40;85.00;;;;;;5011616;28;20464;-49
2022/09/09 05:13:27;;;;;;;4.87;1.87;;;16.50;85.00;;;;;;5009948;28;20476;-49
2022/09/09 05:15:54;;;;;;;2.10;1.90;;;16.50;85.10;;;;;;5014364;28;20494;-49
2022/09/09 05:18:22;;;;;;;4.13;1.77;;;16.50;85.00;;;;;;5010202;28;21006;-49
2022/09/09 05:20:50;;;;;;;2.23;1.70;;;16.50;85.10;;;;;;5012168;28;20555;-49
2022/09/09 05:23:17;;;;;;;2.50;1.50;;;16.50;85.30;;;;;;5011056;28;20516;-49
2022/09/09 05:25:45;;;;;;;3.03;1.77;;;16.50;85.30;;;;;;5011754;28;20456;-49
2022/09/09 05:28:12;;;;;;;3.33;1.30;;;16.50;85.10;;;;;;4999975;28;20889;-49
2022/09/09 05:30:38;;;;;;;2.07;1.87;;;16.50;85.30;;;;;;5015538;28;20458;-49
2022/09/09 05:33:06;;;;;;;3.97;1.87;;;16.40;85.10;;;;;;5012277;28;20461;-49
2022/09/09 05:35:33;;;;;;;3.17;2.23;;;16.20;86.00;;;;;;4994529;28;20469;-49
2022/09/09 05:38:00;;;;;;;2.47;1.83;;;16.10;86.60;;;;;;5011350;28;20456;-49
2022/09/09 05:40:27;;;;;;;2.87;2.13;;;16.00;87.00;;;;;;5011829;28;20465;-49
2022/09/09 05:42:53;;;;;;;7.83;2.03;;;16.10;87.30;;;;;;5001130;28;20531;-49
2022/09/09 05:45:20;;;;;;;3.33;1.83;;;16.10;87.60;;;;;;5009780;28;20510;-49
2022/09/09 05:47:53;;;;;;;3.93;2.30;;;16.20;87.50;;;;;;4990942;28;20484;-49
2022/09/09 05:50:19;;;;;;;2.67;1.80;;;16.40;86.70;;;;;;5011677;28;20456;-49
2022/09/09 05:52:47;;;;;;;3.33;1.80;;;16.40;86.60;;;;;;5008332;28;20498;-48
2022/09/09 05:55:15;;;;;;;3.43;1.70;;;16.50;86.60;;;;;;5012710;28;20464;-49
2022/09/09 05:57:42;;;;;;;5.77;1.87;;;16.60;86.50;;;;;;4993412;28;20496;-49
2022/09/09 06:00:09;;;;;;;4.23;1.43;;;16.60;86.50;;;;;;5010473;28;20480;-49
2022/09/09 06:02:37;;;;;;;2.43;1.23;;;16.60;86.60;;;;;;4984088;28;20548;-49
2022/09/09 06:05:05;;;;;;;1.70;1.53;;;16.70;86.50;;;;;;5011100;28;20489;-49
2022/09/09 06:07:31;;;;;;;3.10;1.60;;;16.70;86.70;;;;;;5014846;28;20472;-49
2022/09/09 06:09:58;;;;;;;2.20;1.47;;;16.70;86.60;;;;;;5008750;28;20524;-50
2022/09/09 06:12:25;;;;;;;2.50;1.30;;;16.80;86.80;;;;;;5030155;28;21143;-49
2022/09/09 06:14:52;;;;;;;4.00;1.47;;;16.80;86.60;;;;;;5013284;28;20802;-49
2022/09/09 06:17:19;;;;;;;2.13;1.40;;;16.90;86.20;;;;;;4994819;28;20496;-50
2022/09/09 06:19:46;;;;;;;3.27;1.40;;;17.00;86.00;;;;;;5008527;28;20468;-49
2022/09/09 06:22:12;;;;;;;3.37;1.70;;;17.00;86.20;;;;;;5025728;28;20469;-49
2022/09/09 06:24:39;;;;;;;4.10;1.60;;;17.10;85.90;;;;;;5010826;28;20492;-49
2022/09/09 06:27:06;;;;;;;2.70;1.40;;;17.10;85.50;;;;;;5012199;28;20454;-49
2022/09/09 06:29:32;;;;;;;3.90;2.10;;;17.20;85.30;;;;;;5008685;28;20459;-49
2022/09/09 06:32:00;;;;;;;3.17;1.93;;;17.30;84.50;;;;;;4995349;28;20469;-49
2022/09/09 06:34:26;;;;;;;1.70;1.60;;;17.40;84.10;;;;;;5002578;28;20485;-49
2022/09/09 06:36:53;;;;;;;4.87;1.70;;;17.40;84.20;;;;;;5016338;28;20496;-49
2022/09/09 06:39:20;;;;;;;13.03;2.27;;;17.40;84.60;;;;;;5002756;28;20469;-50
2022/09/09 06:41:48;;;;;;;4.23;1.50;;;17.40;84.50;;;;;;5010629;28;20468;-49
2022/09/09 06:44:15;;;;;;;2.80;1.83;;;17.50;84.20;;;;;;4998078;28;20493;-49
2022/09/09 06:46:42;;;;;;;3.10;2.30;;;17.50;84.10;;;;;;5011519;28;20491;-49
2022/09/09 06:49:09;;;;;;;3.40;2.10;;;17.50;84.30;;;;;;5001129;28;20487;-49
2022/09/09 06:51:42;;;;;;;5.27;1.90;;;17.50;84.30;;;;;;5008550;28;20453;-50
2022/09/09 06:54:11;;;;;;;5.67;2.07;;;17.60;83.90;;;;;;5007063;28;20470;-49
2022/09/09 06:56:43;;;;;;;2.20;1.80;;;17.60;84.00;;;;;;5010619;28;20493;-49
2022/09/09 06:59:11;;;;;;;3.73;1.70;;;17.60;84.00;;;;;;4993563;28;20893;-50
2022/09/09 07:01:51;;;;;;;4.43;2.30;;;17.70;83.50;;;;;;5012013;28;20949;-48
2022/09/09 07:04:21;;;;;;;4.83;2.00;;;17.80;83.20;;;;;;4998432;28;20487;-49
2022/09/09 07:06:48;;;;;;;2.70;1.73;;;17.80;83.10;;;;;;4990970;28;20464;-49
2022/09/09 07:09:16;;;;;;;4.50;2.47;;;17.80;83.10;;;;;;4994326;28;20469;-50
2022/09/09 07:11:48;;;;;;;6.40;2.47;;;17.80;82.90;;;;;;4992856;28;20491;-49
2022/09/09 07:14:15;;;;;;;4.60;1.93;;;17.90;82.60;;;;;;5000378;28;20449;-49
2022/09/09 07:16:43;;;;;;;6.50;2.30;;;17.90;82.60;;;;;;4995774;28;20488;-50
2022/09/09 07:19:11;;;;;;;3.47;2.43;;;17.90;82.80;;;;;;5006452;28;20791;-49
2022/09/09 07:21:40;;;;;;;8.00;3.43;;;18.00;82.30;;;;;;4996323;28;20538;-49
2022/09/09 07:24:07;;;;;;;8.40;2.80;;;18.00;82.70;;;;;;4996808;28;20943;-49
2022/09/09 07:26:35;;;;;;;2.70;2.50;;;18.10;82.30;;;;;;5016916;28;20467;-49
2022/09/09 07:29:02;;;;;;;5.10;4.10;;;18.10;82.40;;;;;;5008396;28;20458;-49
2022/09/09 07:31:31;;;;;;;5.97;3.47;;;18.10;82.20;;;;;;5009254;28;20955;-49
2022/09/09 07:34:02;;;;;;;4.60;3.73;;;18.20;81.60;;;;;;5007909;28;21174;-49
2022/09/09 07:36:33;;;;;;;6.40;3.17;;;18.30;81.80;;;;;;5011625;28;20504;-50
2022/09/09 07:39:03;;;;;;;4.60;3.57;;;18.40;80.60;;;;;;5009520;28;20456;-49
2022/09/09 07:41:37;;;;;;;4.03;3.53;;;18.50;80.60;;;;;;5014098;28;20481;-49
2022/09/09 07:44:18;;;;;;;6.50;2.87;;;18.60;79.70;;;;;;5022895;28;20492;-50
2022/09/09 07:46:45;;;;;;;7.20;4.27;;;18.70;79.00;;;;;;5007606;28;20456;-49
2022/09/09 07:49:13;;;;;;;6.87;3.70;;;18.80;78.80;;;;;;4993689;28;20520;-49
2022/09/09 07:51:42;;;;;;;5.33;3.47;;;18.80;78.90;;;;;;5007218;28;20753;-49
2022/09/09 07:54:12;;;;;;;4.97;3.13;;;18.90;78.90;;;;;;5010010;28;20484;-49
2022/09/09 07:56:40;;;;;;;4.33;3.43;;;19.00;78.20;;;;;;5006518;28;20518;-49
2022/09/09 07:59:07;;;;;;;4.63;3.40;;;19.10;77.30;;;;;;5010863;28;20465;-49
2022/09/09 08:01:38;;;;;;;7.27;4.03;;;19.20;77.10;;;;;;5022945;28;21103;-50
2022/09/09 08:04:14;;;;;;;7.10;3.60;;;19.30;76.30;;;;;;5010277;28;21009;-50
2022/09/09 08:06:44;;;;;;;7.00;4.20;;;19.20;77.10;;;;;;5006174;28;20456;-49
2022/09/09 08:09:10;;;;;;;9.20;5.00;;;19.30;76.80;;;;;;5003008;28;20508;-49
2022/09/09 08:11:39;;;;;;;6.70;3.40;;;19.30;76.60;;;;;;5004751;28;20485;-49
2022/09/09 08:14:07;;;;;;;4.83;3.37;;;19.30;76.60;;;;;;5003610;28;20533;-49
2022/09/09 08:16:37;;;;;;;6.40;3.67;;;19.30;75.80;;;;;;5007130;28;20942;-50
2022/09/09 08:19:06;;;;;;;3.93;3.17;;;19.40;75.50;;;;;;5006296;28;20456;-49
2022/09/09 08:21:36;;;;;;;8.73;3.37;;;19.40;75.60;;;;;;5005322;28;20453;-49
2022/09/09 08:24:04;;;;;;;5.93;3.23;;;19.40;74.90;;;;;;5013675;28;20477;-49
2022/09/09 08:26:47;;;;;;;6.40;3.20;;;19.40;75.10;;;;;;5006999;28;20986;-49
2022/09/09 08:29:14;;;;;;;8.60;2.80;;;19.40;75.40;;;;;;5006151;28;20539;-50
2022/09/09 08:31:45;;;;;;;4.93;3.20;;;19.30;76.00;;;;;;5008680;28;20468;-50
2022/09/09 08:34:12;;;;;;;7.87;3.00;;;19.20;76.30;;;;;;5006734;28;20477;-49
2022/09/09 08:36:42;;;;;;;3.10;2.70;;;19.30;75.20;;;;;;5003596;28;20468;-49
2022/09/09 08:39:11;;;;;;;7.73;3.10;;;19.40;75.60;;;;;;4990877;28;20468;-49
2022/09/09 08:42:00;;;;;;;4.60;3.23;;;19.40;74.70;;;;;;4984582;28;20488;-51
2022/09/09 08:44:45;;;;;;;4.80;2.83;;;19.40;74.90;;;;;;4995881;28;20575;-51
2022/09/09 08:47:20;;;;;;;6.87;3.03;;;19.40;75.40;;;;;;4984971;28;20508;-49
2022/09/09 08:50:24;;;;;;;3.63;2.90;;;19.40;75.00;;;;;;5006236;28;20460;-49
2022/09/09 08:53:02;;;;;;;6.00;2.83;;;19.50;74.00;;;;;;5009490;28;20457;-49
2022/09/09 08:55:41;;;;;;;6.40;3.03;;;19.60;73.40;;;;;;5006613;28;20457;-49
2022/09/09 08:58:17;;;;;;;3.73;2.73;;;19.60;73.60;;;;;;5007073;28;20507;-49
2022/09/09 09:01:02;;;;;;;3.80;2.80;;;19.70;73.40;;;;;;5005375;28;20577;-49
2022/09/09 09:03:41;;;;;;;2.43;2.23;;;19.80;73.20;;;;;;5003713;28;20465;-49
2022/09/09 09:06:22;;;;;;;7.27;3.03;;;19.80;73.50;;;;;;5005445;28;20458;-49
2022/09/09 09:09:00;;;;;;;3.10;2.53;;;20.00;73.50;;;;;;5007350;28;20890;-50
2022/09/09 09:11:37;;;;;;;2.70;2.40;;;20.10;73.60;;;;;;5005607;28;20469;-48
2022/09/09 09:14:23;;;;;;;3.70;1.90;;;20.10;72.20;;;;;;4993931;28;21031;-47
2022/09/09 09:16:57;;;;;;;6.77;2.43;;;20.20;71.90;;;;;;4991040;28;20460;-47
2022/09/09 09:19:26;;;;;;;4.27;1.73;;;20.20;71.10;;;;;;5010869;28;20472;-48
2022/09/09 09:22:22;;;;;;;3.60;1.90;;;20.30;70.70;;;;;;4990544;28;20465;-48
2022/09/09 09:25:02;;;;;;;7.43;2.40;;;20.30;69.90;;;;;;4978003;28;20668;-48
2022/09/09 09:27:37;;;;;;;4.17;1.70;;;20.40;69.20;;;;;;4997234;28;20562;-48
2022/09/09 09:30:22;;;;;;;3.10;1.83;;;20.30;70.60;;;;;;4986118;28;20450;-48
2022/09/09 09:32:58;;;;;;;4.10;1.40;;;20.30;69.20;;;;;;4979919;28;20538;-48
2022/09/09 09:35:25;;;;;;;5.83;2.00;;;20.30;68.80;;;;;;4994437;28;20718;-48
2022/09/09 09:37:52;;;;;;;3.40;2.17;;;20.30;68.90;;;;;;4992969;28;20537;-48
2022/09/09 09:40:57;;;;;;;6.33;1.87;;;20.40;69.00;;;;;;4993625;28;20457;-48
2022/09/09 09:43:30;;;;;;;3.70;1.40;;;20.40;69.90;;;;;;4990753;28;20480;-48
2022/09/09 09:45:57;;;;;;;2.57;1.70;;;20.40;68.90;;;;;;4993936;28;21028;-48
2022/09/09 09:48:45;;;;;;;4.27;1.47;;;20.40;67.70;;;;;;4993724;28;20471;-48
2022/09/09 09:51:15;;;;;;;6.50;1.97;;;20.40;67.70;;;;;;5011451;28;20452;-48
2022/09/09 09:53:43;;;;;;;2.30;1.63;;;20.50;65.70;;;;;;5000669;28;20550;-48
2022/09/09 09:56:12;;;;;;;3.00;1.50;;;20.50;65.90;;;;;;4977864;28;20552;-48
2022/09/09 09:58:45;;;;;;;3.33;1.63;;;20.60;67.20;;;;;;5011382;28;20483;-48
2022/09/09 10:01:33;;;;;;;4.10;2.03;;;20.70;66.40;;;;;;5000064;28;21259;-47
2022/09/09 10:04:18;;;;;;;3.97;1.83;;;20.80;66.20;;;;;;4995343;28;20523;-48
2022/09/09 10:06:45;;;;;;;4.53;1.70;;;20.80;65.40;;;;;;4996041;28;20462;-48
2022/09/09 10:09:28;;;;;;;4.80;1.63;;;20.90;65.40;;;;;;4995370;28;20978;-48
2022/09/09 10:12:00;;;;;;;6.03;2.50;;;20.90;65.40;;;;;;4980990;28;20563;-47
2022/09/09 10:14:37;;;;;;;3.20;2.23;;;21.00;65.60;;;;;;4994864;28;20464;-47
2022/09/09 10:17:29;;;;;;;3.20;1.80;;;21.10;65.70;;;;;;4992936;28;20504;-48
2022/09/09 10:20:14;;;;;;;3.17;1.63;;;21.20;65.30;;;;;;4981773;28;20986;-48
2022/09/09 10:22:51;;;;;;;2.67;1.40;;;21.30;64.20;;;;;;4996528;28;20485;-47
2022/09/09 10:25:23;;;;;;;4.30;1.00;;;21.30;64.30;;;;;;4997776;28;20519;-48
2022/09/09 10:28:18;;;;;;;4.40;1.50;;;21.40;61.70;;;;;;4996468;28;20488;-47
2022/09/09 10:31:00;;;;;;;2.57;1.00;;;21.50;61.10;;;;;;4993891;28;20829;-48
2022/09/09 10:33:50;;;;;;;3.57;0.93;;;21.60;61.30;;;;;;5008317;28;20467;-48
2022/09/09 10:36:20;;;;;;;3.47;1.00;;;21.80;60.50;;;;;;5002501;28;20536;-47
2022/09/09 10:39:19;;;;;;;2.53;0.90;;;21.90;60.20;;;;;;4996633;28;20469;-48
2022/09/09 10:42:04;;;;;;;1.70;0.90;;;22.00;60.80;;;;;;4995834;28;20888;-48
2022/09/09 10:44:36;;;;;;;3.33;1.53;;;21.90;60.90;;;;;;4998432;28;20570;-48
2022/09/09 10:47:15;;;;;;;2.20;1.23;;;21.90;61.50;;;;;;5012816;28;20542;-48
2022/09/09 10:50:03;;;;;;;3.23;1.47;;;21.80;61.60;;;;;;4997970;28;20468;-48
2022/09/09 10:52:39;;;;;;;1.80;1.03;;;22.00;60.90;;;;;;4998327;28;20520;-48
2022/09/09 10:55:26;;;;;;;1.57;1.27;;;23.20;57.90;;;;;;4994503;28;20476;-48
2022/09/09 10:57:58;;;;;;;2.20;0.93;;;24.60;55.00;;;;;;4981180;28;20543;-48
2022/09/09 11:00:40;;;;;;;2.30;0.90;;;25.40;51.70;;;;;;5011790;28;20479;-48
2022/09/09 11:03:19;;;;;;;2.30;1.20;;;25.60;51.80;;;;;;4995530;28;20535;-48
2022/09/09 11:06:09;;;;;;;3.50;1.10;;;25.60;50.90;;;;;;4985716;28;20582;-48
2022/09/09 11:08:38;;;;;;;2.00;1.37;;;25.00;52.80;;;;;;4997481;28;20460;-48
2022/09/09 11:11:42;;;;;;;4.60;1.40;;;24.50;52.80;;;;;;4998411;28;20501;-48
2022/09/09 11:14:28;;;;;;;3.57;1.50;;;24.00;54.60;;;;;;4996928;28;20508;-48
2022/09/09 11:17:06;;;;;;;1.67;1.00;;;23.50;55.10;;;;;;4998397;28;21044;-48
2022/09/09 11:19:42;;;;;;;1.23;1.13;;;23.20;56.30;;;;;;4980709;28;20550;-48
2022/09/09 11:22:23;;;;;;;2.00;1.20;;;23.00;56.20;;;;;;4984704;28;20503;-47
2022/09/09 11:24:54;;;;;;;3.73;1.20;;;22.80;57.90;;;;;;4993039;28;20499;-48
2022/09/09 11:27:52;;;;;;;2.30;1.30;;;22.60;57.10;;;;;;4992659;28;20805;-48
2022/09/09 11:30:41;;;;;;;3.37;1.80;;;22.50;58.30;;;;;;4993603;28;20571;-48
2022/09/09 11:33:25;;;;;;;4.13;1.60;;;22.40;59.10;;;;;;4997202;28;20476;-48
2022/09/09 11:36:21;;;;;;;3.43;1.30;;;22.20;59.40;;;;;;4995831;28;20500;-48
2022/09/09 11:38:51;;;;;;;4.03;1.50;;;22.20;59.50;;;;;;4996872;28;20515;-48
2022/09/09 11:41:20;;;;;;;1.30;1.20;;;22.10;60.50;;;;;;4972688;28;20508;-48
2022/09/09 11:43:53;;;;;;;5.20;1.33;;;22.00;61.10;;;;;;4996487;28;20455;-48
2022/09/09 11:46:33;;;;;;;3.33;1.33;;;22.00;60.50;;;;;;4993785;28;21009;-48
2022/09/09 11:49:03;;;;;;;6.07;1.40;;;22.00;59.20;;;;;;4991538;28;20491;-48
2022/09/09 11:51:31;;;;;;;4.07;1.10;;;21.90;59.40;;;;;;4974195;28;20475;-48
2022/09/09 11:54:04;;;;;;;1.50;1.00;;;21.90;59.40;;;;;;4991360;28;20519;-48
2022/09/09 11:56:45;;;;;;;3.10;1.40;;;21.90;59.10;;;;;;4996866;28;20456;-48
2022/09/09 11:59:32;;;;;;;4.80;1.50;;;21.90;59.40;;;;;;4993255;28;20492;-48
2022/09/09 12:02:13;;;;;;;1.97;1.13;;;21.80;59.90;;;;;;4992011;28;20504;-48
2022/09/09 12:04:47;;;;;;;5.00;1.37;;;21.70;60.10;;;;;;4993355;28;20559;-47
2022/09/09 12:07:34;;;;;;;3.63;1.10;;;21.70;60.30;;;;;;4993491;28;20463;-48
2022/09/09 12:10:27;;;;;;;3.67;1.20;;;21.60;60.50;;;;;;4998148;28;20550;-48
2022/09/09 12:12:53;;;;;;;6.43;1.43;;;21.50;61.80;;;;;;4994625;28;20483;-48
2022/09/09 12:15:22;;;;;;;3.70;0.90;;;21.40;64.10;;;;;;4979831;28;21020;-48
2022/09/09 12:17:55;;;;;;;1.23;1.00;;;21.30;63.30;;;;;;4992828;28;20522;-48
2022/09/09 12:20:36;;;;;;;1.87;0.90;;;21.30;62.90;;;;;;4982886;28;20583;-48
2022/09/09 12:23:21;;;;;;;4.17;1.20;;;21.20;62.80;;;;;;4979018;28;20569;-47
2022/09/09 12:26:15;;;;;;;1.73;0.93;;;21.20;63.10;;;;;;4996231;28;20577;-48
2022/09/09 12:28:54;;;;;;;3.20;1.20;;;21.10;63.60;;;;;;4994607;28;21037;-48
2022/09/09 12:31:42;;;;;;;3.73;1.63;;;21.00;64.10;;;;;;4993126;28;21231;-48
2022/09/09 12:34:16;;;;;;;1.07;0.83;;;20.90;64.90;;;;;;4988145;28;20464;-48
2022/09/09 12:36:46;;;;;;;2.30;1.10;;;20.90;65.90;;;;;;4976471;28;20885;-48
2022/09/09 12:39:33;;;;;;;1.40;1.00;;;20.80;67.30;;;;;;4993786;28;20465;-48
2022/09/09 12:42:00;;;;;;;1.97;1.20;;;20.70;68.60;;;;;;4980893;28;20989;-48
2022/09/09 12:44:30;;;;;;;2.40;1.00;;;20.50;69.40;;;;;;4995984;28;20456;-47
2022/09/09 12:47:00;;;;;;;1.30;0.83;;;20.50;69.40;;;;;;4992026;28;20527;-48
2022/09/09 12:49:39;;;;;;;2.00;0.87;;;20.50;69.90;;;;;;4981056;28;20495;-48
2022/09/09 12:52:21;;;;;;;1.80;0.90;;;20.50;68.90;;;;;;4977335;28;20970;-48
2022/09/09 12:54:48;;;;;;;3.17;0.90;;;20.50;68.50;;;;;;4993678;28;20532;-50
2022/09/09 12:57:15;;;;;;;1.13;0.77;;;20.50;68.20;;;;;;4992489;28;20563;-48
2022/09/09 12:59:45;;;;;;;1.10;0.53;;;20.50;66.20;;;;;;4995288;28;20512;-47
2022/09/09 13:02:18;;;;;;;1.37;0.73;;;20.50;66.40;;;;;;4993767;28;20461;-49
2022/09/09 13:04:46;;;;;;;4.20;0.80;;;20.60;65.50;;;;;;4980282;28;20499;-48
2022/09/09 13:07:15;;;;;;;1.70;0.73;;;20.60;65.40;;;;;;4992231;28;20497;-49
2022/09/09 13:09:44;;;;;;;1.20;0.73;;;20.70;65.10;;;;;;4979449;28;20480;-48
2022/09/09 13:12:19;;;;;;;1.60;0.70;;;20.70;65.80;;;;;;4984493;28;20465;-49
2022/09/09 13:14:49;;;;;;;3.60;0.80;;;20.70;64.20;;;;;;4976946;28;20546;-48
2022/09/09 13:17:28;;;;;;;1.57;0.60;;;20.70;63.90;;;;;;4990587;28;20547;-48
2022/09/09 13:19:56;;;;;;;1.60;0.60;;;20.80;64.10;;;;;;4992264;28;20537;-48
2022/09/09 13:22:27;;;;;;;1.10;0.73;;;20.80;62.90;;;;;;4994206;28;20827;-48